createdAt,value
2022-09-14T00:01:24.631Z,60687.72
2022-09-14T00:03:53.241Z,60785.09
2022-09-14T00:06:19.912Z,60838.94
2022-09-14T00:08:50.532Z,60809.94
2022-09-14T00:11:17.101Z,60814.06
2022-09-14T00:13:45.216Z,60598.66
2022-09-14T00:16:24.551Z,60764.38
2022-09-14T00:18:56.659Z,60768.50
2022-09-14T00:21:24.001Z,60884.50
2022-09-14T00:23:50.444Z,60783.00
2022-09-14T00:26:19.028Z,60772.66
2022-09-14T00:28:54.424Z,60843.06
2022-09-14T00:31:21.705Z,60764.38
2022-09-14T00:33:49.069Z,60691.88
2022-09-14T00:36:26.912Z,60766.44
2022-09-14T00:38:58.016Z,60760.22
2022-09-14T00:41:27.163Z,60888.66
2022-09-14T00:44:01.576Z,60807.88
2022-09-14T00:46:35.960Z,60818.22
2022-09-14T00:49:05.674Z,60747.81
2022-09-14T00:51:33.866Z,60832.72
2022-09-14T00:54:04.318Z,60828.56
2022-09-14T00:56:31.115Z,60818.22
2022-09-14T00:58:58.829Z,60836.88
2022-09-14T01:01:26.055Z,60793.38
2022-09-14T01:03:52.552Z,60843.06
2022-09-14T01:06:37.260Z,60807.88
2022-09-14T01:09:32.847Z,60754.00
2022-09-14T01:12:05.386Z,60799.59
2022-09-14T01:14:54.998Z,60718.81
2022-09-14T01:17:39.434Z,60770.59
2022-09-14T01:20:17.892Z,60770.59
2022-09-14T01:22:59.523Z,60679.44
2022-09-14T01:26:03.549Z,60729.16
2022-09-14T01:29:02.276Z,60691.88
2022-09-14T01:31:37.746Z,60631.81
2022-09-14T01:34:12.140Z,60675.31
2022-09-14T01:36:40.468Z,60640.09
2022-09-14T01:39:07.751Z,60658.75
2022-09-14T01:41:34.605Z,60596.59
2022-09-14T01:44:08.374Z,60586.25
2022-09-14T01:46:44.631Z,60671.16
2022-09-14T01:49:25.836Z,60633.88
2022-09-14T01:51:58.525Z,60590.38
2022-09-14T01:54:32.156Z,60654.59
2022-09-14T01:57:06.961Z,60696.03
2022-09-14T01:59:37.668Z,61180.72
2022-09-14T02:02:05.836Z,60698.09
2022-09-14T02:04:43.428Z,60797.50
2022-09-14T02:07:10.471Z,60650.44
2022-09-14T02:09:37.700Z,60640.09
2022-09-14T02:12:04.484Z,60718.81
2022-09-14T02:14:31.144Z,60700.16
2022-09-14T02:16:57.680Z,60698.09
2022-09-14T02:19:26.681Z,60662.88
2022-09-14T02:21:53.581Z,60693.94
2022-09-14T02:24:20.643Z,60789.22
2022-09-14T02:26:49.645Z,60772.66
2022-09-14T02:29:16.087Z,60725.00
2022-09-14T02:32:20.476Z,60725.00
2022-09-14T02:35:16.562Z,60640.09
2022-09-14T02:37:48.780Z,60693.94
2022-09-14T02:40:15.157Z,60780.94
2022-09-14T02:43:00.203Z,60710.50
2022-09-14T02:45:36.811Z,60640.09
2022-09-14T02:48:28.084Z,60741.59
2022-09-14T02:51:07.583Z,60720.88
2022-09-14T02:53:43.668Z,60714.66
2022-09-14T02:56:11.135Z,60561.41
2022-09-14T02:58:40.576Z,60625.59
2022-09-14T03:01:08.583Z,60664.94
2022-09-14T03:03:35.968Z,60760.22
2022-09-14T03:06:02.737Z,60602.81
2022-09-14T03:08:29.249Z,60524.13
2022-09-14T03:10:55.665Z,60598.66
2022-09-14T03:13:22.106Z,60567.59
2022-09-14T03:15:48.527Z,60507.53
2022-09-14T03:18:15.499Z,60555.19
2022-09-14T03:20:42.611Z,60791.28
2022-09-14T03:23:10.755Z,60542.75
2022-09-14T03:25:42.479Z,60528.25
2022-09-14T03:28:09.679Z,60584.19
2022-09-14T03:30:36.598Z,60493.03
2022-09-14T03:33:03.448Z,60391.56
2022-09-14T03:35:34.500Z,60482.69
2022-09-14T03:38:02.970Z,60449.56
2022-09-14T03:40:29.557Z,60343.94
2022-09-14T03:42:55.979Z,60327.38
2022-09-14T03:45:22.707Z,60227.97
2022-09-14T03:47:49.693Z,60263.16
2022-09-14T03:50:16.977Z,60306.66
2022-09-14T03:52:43.420Z,60230.03
2022-09-14T03:55:10.532Z,60203.09
2022-09-14T03:57:37.963Z,60095.41
2022-09-14T04:00:05.803Z,60178.25
2022-09-14T04:02:32.305Z,60165.81
2022-09-14T04:04:58.871Z,60051.94
2022-09-14T04:07:33.155Z,60664.94
2022-09-14T04:09:59.620Z,60244.53
2022-09-14T04:12:26.025Z,60095.41
2022-09-14T04:14:52.430Z,60027.06
2022-09-14T04:17:18.848Z,60109.91
2022-09-14T04:19:45.312Z,60134.75
2022-09-14T04:22:11.741Z,60138.91
2022-09-14T04:24:38.221Z,60167.91
2022-09-14T04:27:04.617Z,60172.03
2022-09-14T04:29:31.208Z,60118.19
2022-09-14T04:31:57.954Z,60056.06
2022-09-14T04:34:24.490Z,60130.63
2022-09-14T04:36:50.938Z,60103.69
2022-09-14T04:39:17.666Z,60501.34
2022-09-14T04:41:44.122Z,60134.75
2022-09-14T04:44:10.815Z,60070.56
2022-09-14T04:46:43.609Z,60151.34
2022-09-14T04:49:13.402Z,60027.06
2022-09-14T04:51:39.996Z,60089.19
2022-09-14T04:54:07.212Z,60056.06
2022-09-14T04:56:35.420Z,60383.28
2022-09-14T04:59:04.073Z,60083.00
2022-09-14T05:01:33.771Z,60043.66
2022-09-14T05:04:00.237Z,59993.94
2022-09-14T05:06:31.864Z,60051.94
2022-09-14T05:08:59.849Z,59979.44
2022-09-14T05:11:30.697Z,60012.59
2022-09-14T05:13:57.921Z,60252.81
2022-09-14T05:16:27.111Z,60068.50
2022-09-14T05:18:55.510Z,60285.94
2022-09-14T05:21:23.113Z,60051.94
2022-09-14T05:23:56.778Z,60107.84
2022-09-14T05:26:24.504Z,60047.78
2022-09-14T05:28:52.692Z,59993.94
2022-09-14T05:31:19.643Z,59919.41
2022-09-14T05:33:46.596Z,59971.16
2022-09-14T05:36:13.271Z,59977.38
2022-09-14T05:38:40.028Z,59940.09
2022-09-14T05:41:08.181Z,59894.53
2022-09-14T05:43:34.597Z,59888.34
2022-09-14T05:46:02.817Z,59960.81
2022-09-14T05:48:33.695Z,59956.66
2022-09-14T05:51:14.938Z,59898.69
2022-09-14T05:53:41.531Z,59840.72
2022-09-14T05:56:12.556Z,59857.28
2022-09-14T05:58:39.077Z,59909.03
2022-09-14T06:01:14.825Z,59964.97
2022-09-14T06:03:41.842Z,59838.63
2022-09-14T06:06:09.963Z,59896.63
2022-09-14T06:08:37.080Z,59898.69
2022-09-14T06:11:12.144Z,60138.91
2022-09-14T06:13:38.618Z,59886.25
2022-09-14T06:16:06.906Z,59865.56
2022-09-14T06:18:34.614Z,59840.72
2022-09-14T06:21:01.563Z,59935.97
2022-09-14T06:23:28.648Z,59913.19
2022-09-14T06:25:56.191Z,59915.25
2022-09-14T06:28:23.653Z,59877.97
2022-09-14T06:30:50.292Z,59921.47
2022-09-14T06:33:17.721Z,60211.38
2022-09-14T06:35:48.751Z,59898.69
2022-09-14T06:38:15.265Z,59911.13
2022-09-14T06:40:59.772Z,59923.53
2022-09-14T06:43:27.635Z,59906.97
2022-09-14T06:46:05.949Z,59911.13
2022-09-14T06:48:36.106Z,59983.59
2022-09-14T06:51:18.803Z,59911.13
2022-09-14T06:53:46.388Z,59865.56
2022-09-14T06:56:13.178Z,59946.31
2022-09-14T06:58:39.940Z,59904.91
2022-09-14T07:01:08.469Z,59962.88
2022-09-14T07:03:36.857Z,59967.03
2022-09-14T07:06:08.861Z,59921.47
2022-09-14T07:08:36.977Z,60070.56
2022-09-14T07:11:04.393Z,59927.69
2022-09-14T07:13:31.333Z,59927.69
2022-09-14T07:15:58.012Z,59969.09
2022-09-14T07:18:28.199Z,59890.41
2022-09-14T07:20:55.308Z,59869.69
2022-09-14T07:23:22.060Z,59846.91
2022-09-14T07:25:48.515Z,59840.72
2022-09-14T07:28:14.930Z,59929.75
2022-09-14T07:30:41.517Z,59830.34
2022-09-14T07:33:08.027Z,59844.84
2022-09-14T07:35:34.438Z,59938.03
2022-09-14T07:38:01.182Z,59849.00
2022-09-14T07:40:27.977Z,59834.50
2022-09-14T07:42:57.576Z,59836.56
2022-09-14T07:45:24.708Z,59840.72
2022-09-14T07:47:51.092Z,59803.44
2022-09-14T07:50:18.138Z,59857.28
2022-09-14T07:52:44.911Z,59803.44
2022-09-14T07:55:12.426Z,59919.41
2022-09-14T07:57:55.644Z,59737.16
2022-09-14T08:00:23.232Z,59799.28
2022-09-14T08:02:54.093Z,59886.25
2022-09-14T08:05:21.725Z,59898.69
2022-09-14T08:07:53.710Z,59826.22
2022-09-14T08:10:20.324Z,59793.09
2022-09-14T08:12:51.121Z,60159.63
2022-09-14T08:15:18.158Z,59894.53
2022-09-14T08:17:44.555Z,59778.59
2022-09-14T08:20:10.980Z,59886.25
2022-09-14T08:22:37.344Z,59853.13
2022-09-14T08:25:04.060Z,59871.78
2022-09-14T08:27:30.455Z,59919.41
2022-09-14T08:29:56.869Z,59759.94
2022-09-14T08:32:23.288Z,59894.53
2022-09-14T08:34:52.002Z,59828.28
2022-09-14T08:37:18.528Z,59803.44
2022-09-14T08:39:50.925Z,59909.03
2022-09-14T08:42:19.528Z,60285.94
2022-09-14T08:44:55.299Z,60101.63
2022-09-14T08:47:31.012Z,59977.38
2022-09-14T08:50:06.385Z,59892.47
2022-09-14T08:52:47.991Z,59873.84
2022-09-14T08:55:24.318Z,59923.53
2022-09-14T08:58:00.887Z,60058.16
2022-09-14T09:00:37.497Z,59917.31
2022-09-14T09:03:39.930Z,59952.53
2022-09-14T09:06:06.310Z,59993.94
2022-09-14T09:08:55.940Z,59998.09
2022-09-14T09:11:33.407Z,59917.31
2022-09-14T09:14:00.206Z,59865.56
2022-09-14T09:16:27.255Z,59940.09
2022-09-14T09:18:59.329Z,59973.25
2022-09-14T09:21:29.428Z,60035.38
2022-09-14T09:24:02.506Z,59971.16
2022-09-14T09:26:30.958Z,59948.38
2022-09-14T09:29:00.218Z,60076.78
2022-09-14T09:31:34.319Z,60018.78
2022-09-14T09:34:00.939Z,60039.50
2022-09-14T09:36:30.727Z,59923.53
2022-09-14T09:39:02.981Z,60451.63
2022-09-14T09:41:40.517Z,59981.53
2022-09-14T09:44:11.291Z,60035.38
2022-09-14T09:46:50.112Z,59989.81
2022-09-14T09:49:38.548Z,59884.19
2022-09-14T09:52:14.440Z,60002.22
2022-09-14T09:54:51.641Z,60008.44
2022-09-14T09:57:22.194Z,60064.34
2022-09-14T09:59:48.680Z,60035.38
2022-09-14T10:02:29.690Z,59948.38
2022-09-14T10:04:59.202Z,59948.38
2022-09-14T10:07:26.546Z,59938.03
2022-09-14T10:10:11.024Z,60012.59
2022-09-14T10:12:38.759Z,59998.09
2022-09-14T10:15:27.245Z,60016.72
2022-09-14T10:17:55.026Z,59940.09
2022-09-14T10:20:25.408Z,59979.44
2022-09-14T10:22:52.289Z,60159.63
2022-09-14T10:25:18.969Z,60054.00
2022-09-14T10:27:49.389Z,60039.50
2022-09-14T10:30:18.997Z,60041.56
2022-09-14T10:32:53.433Z,60014.66
2022-09-14T10:35:21.461Z,60116.13
2022-09-14T10:38:04.075Z,60072.63
2022-09-14T10:40:37.926Z,60087.13
2022-09-14T10:43:12.857Z,60101.63
2022-09-14T10:46:01.396Z,60029.16
2022-09-14T10:48:39.893Z,60033.28
2022-09-14T10:51:29.741Z,60018.78
2022-09-14T10:54:12.871Z,60033.28
2022-09-14T10:57:14.802Z,60041.56
2022-09-14T11:00:21.324Z,60058.16
2022-09-14T11:03:20.091Z,60035.38
2022-09-14T11:05:50.957Z,60016.72
2022-09-14T11:08:33.431Z,60087.13
2022-09-14T11:11:18.716Z,60126.47
2022-09-14T11:14:09.388Z,60114.06
2022-09-14T11:16:38.349Z,60209.31
2022-09-14T11:19:32.182Z,60205.19
2022-09-14T11:22:21.215Z,60130.63
2022-09-14T11:24:54.858Z,60116.13
2022-09-14T11:27:29.310Z,60089.19
2022-09-14T11:30:13.587Z,60002.22
2022-09-14T11:32:45.388Z,59989.81
2022-09-14T11:35:26.076Z,59938.03
2022-09-14T11:38:03.348Z,59948.38
2022-09-14T11:40:34.217Z,59923.53
2022-09-14T11:43:03.648Z,59942.19
2022-09-14T11:45:35.018Z,60234.16
2022-09-14T11:48:40.821Z,59935.97
2022-09-14T11:51:19.238Z,60310.78
2022-09-14T11:53:46.459Z,60043.66
2022-09-14T11:56:28.379Z,60074.72
2022-09-14T11:58:57.622Z,60031.22
2022-09-14T12:01:29.157Z,60124.41
2022-09-14T12:04:09.573Z,60116.13
2022-09-14T12:06:46.430Z,60006.38
2022-09-14T12:09:21.632Z,60060.22
2022-09-14T12:11:53.222Z,60087.13
2022-09-14T12:14:31.613Z,60172.03
2022-09-14T12:20:31.762Z,60151.34
2022-09-14T12:23:27.216Z,60211.38
2022-09-14T12:26:00.384Z,60167.91
2022-09-14T12:28:38.815Z,60182.41
2022-09-14T12:31:05.358Z,60128.56
2022-09-14T12:33:31.868Z,60101.63
2022-09-14T12:36:07.680Z,60039.50
2022-09-14T12:38:37.113Z,60087.13
2022-09-14T12:41:24.047Z,59969.09
2022-09-14T12:43:50.745Z,59998.09
2022-09-14T12:46:20.238Z,59975.31
2022-09-14T12:48:47.204Z,59917.31
2022-09-14T12:51:25.881Z,59844.84
2022-09-14T12:54:22.105Z,59851.06
2022-09-14T12:56:57.482Z,59890.41
2022-09-14T12:59:52.775Z,59884.19
2022-09-14T13:02:40.649Z,59919.41
2022-09-14T13:05:14.223Z,59923.53
2022-09-14T13:07:40.942Z,59983.59
2022-09-14T13:10:08.186Z,59962.88
2022-09-14T13:12:40.103Z,59967.03
2022-09-14T13:15:38.275Z,59998.09
2022-09-14T13:18:39.122Z,59983.59
2022-09-14T13:21:24.073Z,60016.72
2022-09-14T13:23:51.010Z,60041.56
2022-09-14T13:26:23.524Z,59983.59
2022-09-14T13:28:52.631Z,60045.72
2022-09-14T13:31:33.422Z,60149.25
2022-09-14T13:34:00.578Z,59981.53
2022-09-14T13:36:29.785Z,59952.53
2022-09-14T13:39:03.170Z,59998.09
2022-09-14T13:41:30.744Z,60041.56
2022-09-14T13:43:58.259Z,60014.66
2022-09-14T13:46:26.503Z,60410.19
2022-09-14T13:48:53.649Z,60089.19
2022-09-14T13:51:28.544Z,60159.63
2022-09-14T13:53:57.359Z,60072.63
2022-09-14T13:56:32.374Z,60116.13
2022-09-14T13:59:19.049Z,60184.47
2022-09-14T14:49:23.609Z,60188.59
2022-09-14T14:51:50.539Z,60370.84
2022-09-14T14:54:17.886Z,60143.03
2022-09-14T14:56:46.596Z,60147.19
2022-09-14T14:59:21.550Z,60155.47
2022-09-14T15:01:49.050Z,60240.38
2022-09-14T16:05:27.647Z,59886.25
2022-09-14T16:18:52.218Z,60060.22
2022-09-14T16:21:53.017Z,59929.75
2022-09-14T16:24:21.040Z,60167.91
2022-09-14T16:26:47.747Z,60118.19
2022-09-14T16:29:15.939Z,60074.72
2022-09-14T16:31:44.029Z,60145.13
2022-09-14T16:34:24.871Z,60174.13
2022-09-14T16:36:51.842Z,60126.47
2022-09-14T16:39:24.182Z,60116.13
2022-09-14T16:41:51.473Z,60130.63
2022-09-14T16:44:19.804Z,60138.91
2022-09-14T16:46:46.341Z,60076.78
2022-09-14T16:49:12.759Z,60060.22
2022-09-14T16:51:39.358Z,60097.50
2022-09-14T16:54:06.477Z,60049.84
2022-09-14T16:56:36.505Z,60041.56
2022-09-14T16:59:04.015Z,60097.50
2022-09-14T17:01:35.049Z,60014.66
2022-09-14T17:04:05.317Z,60012.59
2022-09-14T17:06:32.544Z,60027.06
2022-09-14T17:09:01.339Z,60043.66
2022-09-14T17:11:29.248Z,59942.19
2022-09-14T17:13:56.035Z,60022.94
2022-09-14T17:16:23.731Z,59935.97
2022-09-14T17:18:51.556Z,59973.25
2022-09-14T17:21:20.440Z,59952.53
2022-09-14T17:23:47.079Z,59917.31
2022-09-14T17:26:18.038Z,59938.03
2022-09-14T17:28:45.605Z,59886.25
2022-09-14T17:31:15.193Z,59882.13
2022-09-14T17:33:41.789Z,59923.53
2022-09-14T17:36:08.527Z,59906.97
2022-09-14T17:38:41.427Z,59886.25
2022-09-14T17:41:27.933Z,59884.19
2022-09-14T17:43:56.876Z,59857.28
2022-09-14T17:46:24.006Z,59882.13
2022-09-14T17:48:51.128Z,59896.63
2022-09-14T17:51:22.820Z,59917.31
2022-09-14T17:53:51.980Z,59915.25
2022-09-14T17:56:20.887Z,59857.28
2022-09-14T17:58:48.909Z,59935.97
2022-09-14T18:01:20.118Z,59888.34
2022-09-14T18:06:46.614Z,59838.63
2022-09-14T18:09:16.066Z,59857.28
2022-09-14T18:11:43.279Z,59832.44
2022-09-14T18:14:12.647Z,59832.44
2022-09-14T18:16:39.820Z,59745.47
2022-09-14T18:19:06.423Z,59766.16
2022-09-14T18:21:32.818Z,60099.56
2022-09-14T18:23:59.240Z,59797.22
2022-09-14T18:26:25.819Z,59730.97
2022-09-14T18:28:55.846Z,59724.75
2022-09-14T18:31:22.544Z,59737.16
2022-09-14T18:33:58.936Z,59741.31
2022-09-14T18:36:28.841Z,59695.75
2022-09-14T18:38:55.807Z,59654.34
2022-09-14T18:41:28.121Z,59699.91
2022-09-14T18:43:54.691Z,60116.13
2022-09-14T18:46:24.610Z,59664.69
2022-09-14T18:48:53.222Z,59654.34
2022-09-14T18:51:20.471Z,59619.16
2022-09-14T18:53:46.974Z,59954.59
2022-09-14T18:56:15.410Z,59606.72
2022-09-14T18:58:46.982Z,59621.22
2022-09-14T19:01:14.939Z,59625.34
2022-09-14T19:03:42.774Z,59627.44
2022-09-14T19:06:12.258Z,59590.16
2022-09-14T19:08:38.812Z,59598.44
2022-09-14T19:11:11.228Z,59594.28
2022-09-14T19:13:37.885Z,59581.88
2022-09-14T19:16:09.596Z,59565.31
2022-09-14T19:18:36.382Z,59590.16
2022-09-14T19:21:11.623Z,59583.94
2022-09-14T19:23:38.323Z,59600.50
2022-09-14T19:26:06.887Z,59567.38
2022-09-14T19:28:46.158Z,59557.03
2022-09-14T19:31:17.766Z,59581.88
2022-09-14T19:33:53.401Z,59521.81
2022-09-14T19:36:24.061Z,59534.25
2022-09-14T19:38:51.852Z,59463.84
2022-09-14T19:41:21.622Z,59606.72
2022-09-14T19:43:51.354Z,59575.66
2022-09-14T19:46:19.718Z,59563.25
2022-09-14T19:48:46.791Z,59824.13
2022-09-14T19:51:18.727Z,59588.09
2022-09-14T19:53:52.192Z,59476.28
2022-09-14T19:56:21.688Z,59505.25
2022-09-14T19:58:52.043Z,59693.69
2022-09-14T20:01:20.429Z,59488.69
2022-09-14T20:03:50.254Z,59434.88
2022-09-14T20:06:23.274Z,59424.50
2022-09-14T20:08:51.909Z,59370.69
2022-09-14T20:11:20.381Z,59385.16
2022-09-14T20:13:48.620Z,59352.03
2022-09-14T20:16:22.492Z,59345.84
2022-09-14T20:18:50.183Z,59343.75
2022-09-14T20:21:19.440Z,59271.28
2022-09-14T20:24:11.428Z,59292.00
2022-09-14T20:26:38.735Z,59256.81
2022-09-14T20:29:05.740Z,59310.63
2022-09-14T20:31:32.265Z,59316.84
2022-09-14T20:33:59.682Z,59240.25
2022-09-14T20:36:28.700Z,59211.25
2022-09-14T20:39:00.762Z,59200.91
2022-09-14T20:41:30.450Z,59231.97
2022-09-14T20:43:57.770Z,59316.84
2022-09-14T20:46:47.084Z,59186.41
2022-09-14T20:49:29.550Z,59130.50
2022-09-14T20:52:04.798Z,59219.53
2022-09-14T20:54:37.255Z,59045.63
2022-09-14T20:57:04.747Z,59198.81
2022-09-14T20:59:31.373Z,59200.91
2022-09-14T21:01:59.541Z,59236.09
2022-09-14T21:04:28.718Z,59188.47
2022-09-14T21:06:55.913Z,59496.97
2022-09-14T21:09:25.494Z,59167.78
2022-09-14T21:11:53.022Z,59169.84
2022-09-14T21:14:20.294Z,59246.44
2022-09-14T21:16:48.466Z,59236.09
2022-09-14T21:19:20.915Z,59234.03
2022-09-14T21:21:48.229Z,59256.81
2022-09-14T21:24:15.656Z,59327.19
2022-09-14T21:26:43.226Z,59256.81
2022-09-14T21:29:13.084Z,59287.84
2022-09-14T21:31:39.802Z,59323.06
2022-09-14T21:34:08.036Z,59331.34
2022-09-14T21:36:40.436Z,59368.59
2022-09-14T21:39:12.454Z,59381.03
2022-09-14T21:41:40.074Z,59389.31
2022-09-14T21:44:06.730Z,59393.44
2022-09-14T21:46:33.738Z,59405.88
2022-09-14T21:49:00.292Z,59546.66
2022-09-14T21:51:31.773Z,59366.53
2022-09-14T21:54:00.738Z,59381.03
2022-09-14T21:56:30.085Z,59407.94
2022-09-14T21:58:58.399Z,59424.50
2022-09-14T22:01:25.633Z,59436.94
2022-09-14T22:03:53.726Z,59470.06
2022-09-14T22:06:22.314Z,59451.44
2022-09-14T22:08:49.634Z,59656.41
2022-09-14T22:11:24.041Z,59441.06
2022-09-14T22:13:54.946Z,59453.50
2022-09-14T22:16:22.875Z,59476.28
2022-09-14T22:18:53.458Z,59424.50
2022-09-14T22:21:21.422Z,59472.13
2022-09-14T22:23:53.515Z,59422.44
2022-09-14T22:26:20.643Z,59397.59
2022-09-14T22:28:49.052Z,59343.75
2022-09-14T22:31:16.548Z,59360.31
2022-09-14T22:33:43.188Z,59412.09
2022-09-14T22:36:10.596Z,59349.97
2022-09-14T22:38:37.329Z,59472.13
2022-09-14T22:41:06.688Z,59258.88
2022-09-14T22:43:34.698Z,59281.66
2022-09-14T22:46:01.701Z,59277.50
2022-09-14T22:48:28.636Z,59339.63
2022-09-14T22:50:56.061Z,59306.50
2022-09-14T22:53:23.761Z,59347.91
2022-09-14T22:55:50.618Z,59360.31
2022-09-14T22:58:21.449Z,59387.25
2022-09-14T23:00:48.501Z,59339.63
2022-09-14T23:03:15.802Z,59341.69
2022-09-14T23:05:50.513Z,59407.94
2022-09-14T23:08:18.181Z,59374.81
2022-09-14T23:10:45.444Z,59347.91
2022-09-14T23:13:11.899Z,59381.03
2022-09-14T23:15:39.280Z,59343.75
2022-09-14T23:18:06.206Z,59387.25
2022-09-14T23:20:37.112Z,59439.00
2022-09-14T23:23:03.733Z,59395.53
2022-09-14T23:25:30.121Z,59436.94
2022-09-14T23:27:56.905Z,59445.22
2022-09-14T23:30:23.309Z,59428.66
2022-09-14T23:32:49.677Z,59449.34
2022-09-14T23:35:16.199Z,59470.06
2022-09-14T23:37:42.576Z,59484.56
2022-09-14T23:40:09.248Z,59519.75
2022-09-14T23:42:35.716Z,59530.09
2022-09-14T23:45:03.936Z,59538.38
2022-09-14T23:47:30.329Z,59507.34
2022-09-14T23:49:56.953Z,59484.56
2022-09-14T23:52:23.692Z,59552.88
2022-09-14T23:54:50.441Z,59511.47
2022-09-14T23:57:16.868Z,59606.72
2022-09-14T23:59:43.421Z,59588.09
